createdAt,value
2022-12-19T00:00:37.792Z,15.77
2022-12-19T00:03:39.840Z,24.63
2022-12-19T00:06:44.116Z,26.90
2022-12-19T00:09:46.170Z,23.63
2022-12-19T00:12:48.418Z,23.83
2022-12-19T00:15:50.329Z,17.17
2022-12-19T00:18:55.286Z,9.13
2022-12-19T00:21:57.567Z,5.53
2022-12-19T00:24:59.523Z,3.07
2022-12-19T00:28:01.407Z,3.50
2022-12-19T00:31:04.260Z,1.30
2022-12-19T00:34:06.689Z,2.00
2022-12-19T00:37:08.923Z,2.40
2022-12-19T00:40:11.496Z,2.27
2022-12-19T00:43:13.349Z,2.07
2022-12-19T00:46:16.175Z,1.73
2022-12-19T00:49:18.231Z,3.87
2022-12-19T00:52:20.228Z,1.97
2022-12-19T00:55:23.622Z,1.87
2022-12-19T00:58:25.544Z,2.17
2022-12-19T01:01:31.239Z,2.87
2022-12-19T01:04:38.237Z,1.87
2022-12-19T01:07:43.796Z,1.37
2022-12-19T01:10:47.246Z,2.00
2022-12-19T01:13:49.302Z,2.47
2022-12-19T01:16:52.061Z,2.23
2022-12-19T01:19:54.016Z,4.43
2022-12-19T01:22:55.947Z,5.23
2022-12-19T01:25:58.792Z,2.13
2022-12-19T01:29:01.817Z,1.43
2022-12-19T01:32:03.927Z,2.33
2022-12-19T01:35:06.582Z,2.17
2022-12-19T01:38:16.137Z,4.23
2022-12-19T01:41:17.987Z,3.13
2022-12-19T01:44:20.025Z,2.63
2022-12-19T01:47:21.928Z,3.20
2022-12-19T01:50:38.090Z,3.20
2022-12-19T01:53:49.782Z,2.30
2022-12-19T01:56:55.232Z,3.63
2022-12-19T01:59:59.087Z,2.83
2022-12-19T02:03:16.391Z,6.17
2022-12-19T02:06:19.892Z,6.47
2022-12-19T02:09:22.140Z,5.87
2022-12-19T02:12:29.683Z,3.07
2022-12-19T02:15:35.634Z,1.80
2022-12-19T02:18:52.145Z,2.33
2022-12-19T02:22:19.187Z,1.90
2022-12-19T02:25:45.450Z,1.33
2022-12-19T02:29:02.599Z,1.67
2022-12-19T02:32:30.314Z,17.00
2022-12-19T02:35:52.407Z,18.23
2022-12-19T02:38:58.826Z,22.03
2022-12-19T02:42:02.442Z,16.17
2022-12-19T02:45:06.765Z,9.37
2022-12-19T02:48:09.644Z,9.83
2022-12-19T02:51:11.715Z,12.00
2022-12-19T02:54:14.415Z,5.97
2022-12-19T02:57:21.971Z,2.57
2022-12-19T03:00:26.366Z,6.53
2022-12-19T03:03:35.323Z,24.90
2022-12-19T03:06:55.066Z,33.47
2022-12-19T03:10:06.024Z,28.27
2022-12-19T03:13:27.657Z,24.80
2022-12-19T03:16:29.559Z,30.60
2022-12-19T03:19:32.149Z,25.27
2022-12-19T03:22:34.208Z,29.23
2022-12-19T03:25:36.999Z,20.03
2022-12-19T03:28:55.010Z,18.90
2022-12-19T03:31:58.058Z,15.77
2022-12-19T03:35:24.152Z,9.00
2022-12-19T03:38:27.792Z,6.90
2022-12-19T03:41:49.779Z,3.93
2022-12-19T03:44:54.180Z,5.13
2022-12-19T03:47:59.331Z,3.00
2022-12-19T03:51:19.493Z,3.23
2022-12-19T03:54:28.087Z,2.47
2022-12-19T03:58:16.653Z,3.43
2022-12-19T04:01:19.568Z,2.23
2022-12-19T04:04:22.468Z,3.53
2022-12-19T04:07:24.910Z,2.33
2022-12-19T04:10:28.795Z,2.63
2022-12-19T04:13:55.119Z,1.80
2022-12-19T04:17:23.109Z,3.20
2022-12-19T04:20:26.784Z,15.27
2022-12-19T04:23:37.654Z,28.63
2022-12-19T04:26:41.081Z,33.50
2022-12-19T04:29:44.376Z,33.97
2022-12-19T04:32:47.736Z,32.43
2022-12-19T04:35:49.738Z,27.50
2022-12-19T04:38:52.624Z,31.27
2022-12-19T04:41:56.464Z,32.53
2022-12-19T04:44:59.001Z,32.53
2022-12-19T04:48:00.905Z,29.47
2022-12-19T04:51:03.071Z,30.60
2022-12-19T04:54:05.498Z,32.87
2022-12-19T04:57:08.485Z,32.07
2022-12-19T05:00:11.348Z,31.20
2022-12-19T05:03:13.349Z,30.83
2022-12-19T05:06:16.189Z,33.60
2022-12-19T05:09:18.237Z,30.63
2022-12-19T05:12:20.158Z,30.53
2022-12-19T05:15:22.217Z,35.47
2022-12-19T05:18:24.564Z,28.70
2022-12-19T05:21:26.569Z,32.87
2022-12-19T05:24:28.491Z,28.87
2022-12-19T05:27:30.491Z,27.80
2022-12-19T05:30:32.784Z,29.10
2022-12-19T05:33:35.409Z,28.90
2022-12-19T05:36:37.351Z,25.83
2022-12-19T05:39:39.847Z,30.70
2022-12-19T05:42:41.787Z,30.63
2022-12-19T05:45:44.294Z,29.83
2022-12-19T05:48:46.334Z,25.67
2022-12-19T05:51:49.018Z,30.90
2022-12-19T05:54:50.983Z,29.73
2022-12-19T05:57:53.068Z,34.27
2022-12-19T06:01:00.593Z,34.43
2022-12-19T06:04:02.948Z,35.47
2022-12-19T06:07:05.733Z,29.47
2022-12-19T06:10:08.278Z,34.30
2022-12-19T06:13:10.303Z,34.03
2022-12-19T06:16:15.491Z,34.07
2022-12-19T06:19:17.381Z,34.23
2022-12-19T06:22:19.372Z,33.60
2022-12-19T06:25:21.331Z,33.57
2022-12-19T06:28:24.543Z,33.97
2022-12-19T06:31:26.543Z,36.90
2022-12-19T06:35:02.093Z,33.90
2022-12-19T06:37:50.572Z,37.83
2022-12-19T06:41:11.186Z,39.40
2022-12-19T06:44:14.331Z,32.70
2022-12-19T06:47:16.377Z,35.90
2022-12-19T06:50:18.313Z,35.17
2022-12-19T06:53:21.098Z,29.70
2022-12-19T06:56:23.512Z,31.73
2022-12-19T06:59:25.660Z,31.03
2022-12-19T07:02:30.465Z,31.60
2022-12-19T07:05:32.804Z,34.57
2022-12-19T07:08:34.756Z,31.63
2022-12-19T07:11:36.734Z,33.60
2022-12-19T07:14:38.670Z,22.63
2022-12-19T07:17:40.812Z,23.57
2022-12-19T07:20:45.184Z,28.00
2022-12-19T07:23:47.557Z,26.67
2022-12-19T07:26:49.578Z,26.03
2022-12-19T07:29:51.565Z,20.43
2022-12-19T07:32:53.600Z,19.93
2022-12-19T07:35:56.251Z,22.13
2022-12-19T07:38:58.237Z,12.00
2022-12-19T07:42:00.238Z,4.97
2022-12-19T07:45:02.118Z,7.43
2022-12-19T07:48:05.355Z,12.90
2022-12-19T07:51:07.237Z,13.17
2022-12-19T07:54:09.387Z,21.40
2022-12-19T07:57:11.312Z,18.60
2022-12-19T08:00:13.518Z,20.20
2022-12-19T08:03:15.590Z,29.37
2022-12-19T08:06:17.708Z,26.20
2022-12-19T08:09:19.758Z,25.40
2022-12-19T08:12:22.171Z,23.77
2022-12-19T08:15:24.089Z,23.83
2022-12-19T08:18:26.258Z,17.47
2022-12-19T08:21:28.386Z,17.03
2022-12-19T08:24:31.312Z,19.20
2022-12-19T08:27:35.144Z,19.83
2022-12-19T08:30:39.537Z,16.40
2022-12-19T08:33:42.006Z,20.67
2022-12-19T08:36:44.685Z,23.37
2022-12-19T08:39:46.544Z,23.70
2022-12-19T08:42:48.702Z,20.87
2022-12-19T08:45:50.759Z,19.43
2022-12-19T08:48:53.089Z,18.47
2022-12-19T08:51:55.216Z,14.13
2022-12-19T08:54:57.283Z,18.27
2022-12-19T08:57:59.173Z,10.30
2022-12-19T09:01:06.795Z,7.67
2022-12-19T09:05:04.764Z,8.43
2022-12-19T09:07:31.224Z,10.90
2022-12-19T09:10:37.089Z,8.63
2022-12-19T09:13:40.636Z,5.40
2022-12-19T09:16:42.610Z,4.17
2022-12-19T09:19:48.082Z,4.93
2022-12-19T09:22:50.349Z,7.50
2022-12-19T09:25:52.394Z,4.03
2022-12-19T09:28:55.095Z,3.47
2022-12-19T09:31:57.235Z,5.73
2022-12-19T09:34:59.085Z,4.70
2022-12-19T09:38:01.031Z,3.87
2022-12-19T09:41:21.211Z,3.37
2022-12-19T09:44:51.101Z,2.67
2022-12-19T09:47:57.790Z,3.23
2022-12-19T09:51:17.079Z,5.30
2022-12-19T09:54:23.761Z,6.63
2022-12-19T09:57:44.708Z,3.97
2022-12-19T10:00:55.107Z,4.73
2022-12-19T10:04:20.388Z,3.30
2022-12-19T10:07:48.377Z,3.20
2022-12-19T10:12:36.203Z,2.97
2022-12-19T10:14:37.616Z,3.73
2022-12-19T10:17:56.567Z,2.70
2022-12-19T10:21:05.124Z,2.53
2022-12-19T10:24:16.216Z,2.07
2022-12-19T10:27:21.107Z,3.97
2022-12-19T10:30:24.275Z,2.77
2022-12-19T10:33:30.934Z,5.13
2022-12-19T10:37:12.906Z,2.13
2022-12-19T10:40:34.972Z,1.87
2022-12-19T10:43:55.474Z,2.90
2022-12-19T10:46:57.526Z,3.00
2022-12-19T10:50:04.008Z,2.60
2022-12-19T10:53:11.682Z,8.70
2022-12-19T10:56:23.648Z,3.60
2022-12-19T10:59:27.504Z,5.63
2022-12-19T11:02:42.080Z,3.40
2022-12-19T11:05:57.970Z,3.77
2022-12-19T11:09:40.748Z,6.80
2022-12-19T11:16:50.381Z,4.53
2022-12-19T11:19:57.695Z,4.90
2022-12-19T11:29:40.717Z,4.10
2022-12-19T11:29:41.596Z,2.50
2022-12-19T11:30:46.768Z,4.53
2022-12-19T11:33:30.647Z,6.67
2022-12-19T11:36:43.783Z,5.07
2022-12-19T11:39:53.855Z,4.27
2022-12-19T11:43:42.507Z,2.10
2022-12-19T11:46:50.372Z,2.70
2022-12-19T11:49:59.399Z,3.43
2022-12-19T11:53:19.174Z,3.80
2022-12-19T11:56:25.032Z,4.13
2022-12-19T11:59:32.553Z,10.27
2022-12-19T12:02:53.587Z,5.50
2022-12-19T12:05:58.664Z,5.07
2022-12-19T12:14:05.876Z,4.00
2022-12-19T12:21:19.529Z,4.67
2022-12-19T12:30:54.510Z,15.87
2022-12-19T12:31:09.192Z,7.03
2022-12-19T12:31:30.557Z,9.63
2022-12-19T12:32:00.978Z,2.80
2022-12-19T12:39:18.230Z,1.60
2022-12-19T12:42:28.646Z,3.27
2022-12-19T12:45:42.217Z,2.67
2022-12-19T12:49:01.049Z,4.63
2022-12-19T12:52:06.041Z,5.33
2022-12-19T12:55:26.363Z,4.33
2022-12-19T12:58:47.230Z,4.30
2022-12-19T13:01:58.032Z,4.50
2022-12-19T13:05:01.560Z,2.97
2022-12-19T13:08:39.684Z,2.80
2022-12-19T13:12:11.035Z,2.60
2022-12-19T13:15:27.858Z,5.53
2022-12-19T13:18:33.393Z,3.08
2022-12-19T13:22:04.434Z,3.90
2022-12-19T13:25:48.288Z,6.30
2022-12-19T13:28:50.378Z,8.30
2022-12-19T13:32:18.791Z,5.20
2022-12-19T13:36:08.595Z,5.10
2022-12-19T13:39:49.182Z,8.30
2022-12-19T13:42:33.356Z,7.03
2022-12-19T13:45:35.978Z,12.03
2022-12-19T13:48:43.842Z,6.03
2022-12-19T13:51:48.788Z,5.63
2022-12-19T13:54:55.872Z,5.13
2022-12-19T13:57:58.173Z,3.07
2022-12-19T14:01:20.826Z,4.47
2022-12-19T14:04:31.841Z,4.17
2022-12-19T14:07:40.420Z,8.60
2022-12-19T14:11:38.456Z,11.03
2022-12-19T14:14:34.541Z,9.67
2022-12-19T14:17:36.525Z,14.80
2022-12-19T14:22:02.212Z,13.93
2022-12-19T14:24:18.164Z,13.70
2022-12-19T14:28:17.938Z,12.97
2022-12-19T14:31:03.552Z,13.17
2022-12-19T14:38:03.632Z,12.30
2022-12-19T14:41:08.022Z,11.77
2022-12-19T14:51:42.985Z,11.87
2022-12-19T14:54:18.172Z,11.23
2022-12-19T14:54:21.444Z,8.07
2022-12-19T14:58:55.993Z,8.50
2022-12-19T15:01:28.731Z,5.13
2022-12-19T15:04:54.913Z,6.37
2022-12-19T15:07:59.052Z,4.83
2022-12-19T15:11:41.065Z,4.33
2022-12-19T15:14:59.210Z,7.47
2022-12-19T15:18:04.542Z,7.57
2022-12-19T15:21:10.569Z,8.33
2022-12-19T15:24:12.502Z,8.83
2022-12-19T15:27:17.933Z,9.10
2022-12-19T15:30:22.420Z,8.23
2022-12-19T15:33:24.384Z,3.60
2022-12-19T15:36:26.502Z,4.80
2022-12-19T15:39:30.469Z,5.13
2022-12-19T15:42:32.791Z,5.80
2022-12-19T15:45:34.804Z,7.60
2022-12-19T15:48:39.922Z,8.83
2022-12-19T15:51:42.133Z,5.87
2022-12-19T15:54:49.727Z,4.60
2022-12-19T15:57:56.133Z,5.63
2022-12-19T16:01:01.112Z,5.00
2022-12-19T16:04:03.803Z,5.90
2022-12-19T16:07:14.643Z,5.33
2022-12-19T16:10:17.429Z,5.30
2022-12-19T16:13:23.181Z,3.20
2022-12-19T16:16:25.526Z,5.30
2022-12-19T16:19:30.483Z,8.73
2022-12-19T16:22:32.352Z,6.50
2022-12-19T16:25:46.660Z,6.83
2022-12-19T16:28:48.573Z,4.17
2022-12-19T16:31:51.526Z,4.67
2022-12-19T16:34:54.521Z,9.13
2022-12-19T16:37:57.849Z,10.73
2022-12-19T16:41:00.035Z,9.20
2022-12-19T16:44:02.566Z,6.20
2022-12-19T16:47:04.507Z,11.33
2022-12-19T16:50:20.204Z,10.07
2022-12-19T16:53:22.137Z,6.13
2022-12-19T16:56:35.632Z,4.10
2022-12-19T16:59:40.448Z,4.13
2022-12-19T17:02:51.300Z,3.23
2022-12-19T17:05:53.959Z,6.00
2022-12-19T17:08:55.926Z,4.83
2022-12-19T17:12:00.360Z,3.97
2022-12-19T17:15:04.923Z,4.87
2022-12-19T17:18:16.741Z,4.50
2022-12-19T17:21:21.950Z,4.17
2022-12-19T17:24:24.733Z,4.93
2022-12-19T17:27:26.728Z,3.03
2022-12-19T17:30:28.787Z,2.87
2022-12-19T17:33:38.800Z,2.67
2022-12-19T17:36:40.635Z,3.43
2022-12-19T17:39:42.635Z,4.37
2022-12-19T17:42:44.508Z,5.97
2022-12-19T17:45:46.575Z,6.83
2022-12-19T17:48:51.424Z,7.70
2022-12-19T17:51:53.816Z,6.57
2022-12-19T17:54:55.808Z,4.60
2022-12-19T17:57:59.155Z,3.83
2022-12-19T18:01:01.142Z,5.83
2022-12-19T18:04:03.419Z,3.10
2022-12-19T18:07:12.276Z,3.70
2022-12-19T18:10:16.994Z,3.93
2022-12-19T18:13:19.037Z,5.27
2022-12-19T18:16:25.920Z,7.87
2022-12-19T18:19:30.958Z,4.80
2022-12-19T18:22:33.129Z,8.30
2022-12-19T18:25:37.864Z,6.20
2022-12-19T18:28:41.049Z,5.67
2022-12-19T18:31:49.998Z,3.77
2022-12-19T18:34:53.304Z,7.87
2022-12-19T18:37:56.931Z,5.97
2022-12-19T18:40:59.257Z,5.43
2022-12-19T18:44:01.231Z,4.70
2022-12-19T18:47:03.277Z,5.37
2022-12-19T18:50:17.814Z,4.70
2022-12-19T18:53:22.154Z,4.63
2022-12-19T18:56:24.447Z,4.17
2022-12-19T18:59:26.454Z,8.53
2022-12-19T19:02:28.902Z,4.77
2022-12-19T19:05:33.444Z,4.93
2022-12-19T19:08:35.361Z,5.93
2022-12-19T19:11:37.439Z,3.23
2022-12-19T19:14:39.528Z,4.90
2022-12-19T19:17:42.392Z,8.53
2022-12-19T19:20:45.431Z,4.90
2022-12-19T19:23:49.495Z,7.03
2022-12-19T19:26:51.377Z,4.77
2022-12-19T19:29:53.269Z,5.27
2022-12-19T19:32:58.411Z,12.67
2022-12-19T19:36:11.262Z,10.80
2022-12-19T19:39:14.401Z,10.73
2022-12-19T19:42:21.615Z,12.87
2022-12-19T19:45:30.519Z,7.93
2022-12-19T19:48:35.438Z,5.87
2022-12-19T19:51:40.623Z,4.80
2022-12-19T19:54:43.623Z,3.80
2022-12-19T19:57:49.093Z,3.90
2022-12-19T20:00:51.529Z,4.60
2022-12-19T20:03:53.808Z,4.97
2022-12-19T20:06:55.859Z,8.37
2022-12-19T20:09:57.796Z,4.13
2022-12-19T20:13:00.617Z,5.13
2022-12-19T20:16:15.992Z,4.20
2022-12-19T20:19:18.228Z,5.37
2022-12-19T20:22:20.186Z,9.20
2022-12-19T20:25:23.077Z,5.87
2022-12-19T20:28:24.955Z,6.37
2022-12-19T20:31:27.187Z,4.90
2022-12-19T20:34:29.267Z,4.23
2022-12-19T20:37:31.168Z,3.40
2022-12-19T20:40:33.052Z,6.33
2022-12-19T20:43:35.993Z,5.80
2022-12-19T20:46:38.298Z,4.13
2022-12-19T20:49:41.276Z,3.70
2022-12-19T20:52:45.776Z,6.13
2022-12-19T20:56:20.829Z,7.80
2022-12-19T20:59:29.745Z,4.43
2022-12-19T21:03:16.788Z,5.03
2022-12-19T21:06:01.310Z,8.53
2022-12-19T21:09:10.984Z,5.23
2022-12-19T21:12:14.535Z,5.57
2022-12-19T21:15:17.156Z,6.10
2022-12-19T21:18:19.709Z,4.87
2022-12-19T21:21:24.545Z,6.10
2022-12-19T21:24:26.702Z,6.70
2022-12-19T21:27:28.942Z,4.50
2022-12-19T21:30:30.892Z,4.20
2022-12-19T21:33:33.148Z,6.27
2022-12-19T21:36:35.002Z,6.00
2022-12-19T21:39:37.871Z,7.73
2022-12-19T21:42:39.771Z,2.83
2022-12-19T21:45:43.303Z,3.10
2022-12-19T21:48:50.290Z,3.13
2022-12-19T21:51:52.568Z,1.53
2022-12-19T21:54:54.670Z,2.50
2022-12-19T21:57:56.774Z,4.40
2022-12-19T22:01:08.312Z,3.93
2022-12-19T22:04:21.524Z,3.50
2022-12-19T22:07:24.765Z,2.73
2022-12-19T22:10:27.564Z,2.27
2022-12-19T22:13:30.099Z,3.03
2022-12-19T22:16:34.346Z,3.37
2022-12-19T22:19:36.810Z,3.63
2022-12-19T22:22:39.336Z,3.07
2022-12-19T22:25:41.466Z,3.90
2022-12-19T22:28:45.486Z,4.80
2022-12-19T22:31:47.682Z,6.03
2022-12-19T22:34:49.860Z,11.57
2022-12-19T22:37:52.158Z,4.53
2022-12-19T22:40:54.215Z,7.27
2022-12-19T22:43:56.497Z,3.57
2022-12-19T22:46:58.912Z,3.13
2022-12-19T22:50:01.018Z,4.90
2022-12-19T22:53:04.393Z,8.83
2022-12-19T22:56:12.692Z,5.60
2022-12-19T22:59:14.600Z,2.37
2022-12-19T23:02:16.757Z,3.53
2022-12-19T23:05:18.854Z,3.17
2022-12-19T23:08:22.151Z,3.27
2022-12-19T23:11:28.582Z,2.77
2022-12-19T23:14:30.461Z,3.60
2022-12-19T23:17:32.536Z,3.00
2022-12-19T23:20:34.740Z,2.57
2022-12-19T23:23:42.251Z,5.27
2022-12-19T23:26:44.465Z,2.50
2022-12-19T23:29:46.595Z,2.40
2022-12-19T23:32:50.867Z,2.67
2022-12-19T23:35:53.252Z,2.03
2022-12-19T23:38:56.392Z,3.93
2022-12-19T23:41:58.266Z,2.63
2022-12-19T23:45:01.207Z,2.73
2022-12-19T23:48:03.211Z,2.60
2022-12-19T23:51:07.864Z,2.40
2022-12-19T23:54:09.771Z,2.70
2022-12-19T23:57:11.962Z,3.90
